메인 페이지
METAR-TAF:

METAR-TAF

공항 :

심페로폴 국제공항

심페로폴, 러시아

위도: 45-03-08N, 경도: 033-58-31E, 고도: 195m

METAR: 누락

시각: 21:37 (18:37 UTC)

예보

예보는 1 시간 47분 전, 16:50시(UTC)에 발표되었습니다.
예보 대상 시간: 20일 18시부터 21일 18시까지 (UTC)
남남서10kt, 순간 최대 풍속 19kt
시정: 3100m
고도 1100ft 상공 구름 많음
고도 2000ft 상공 구름 많음, 적란운.
박무
20일 2100시부터 (UTC)
서남서6kt
시정: 0400m
고도 100ft 상공 흐림
고도 2000ft 상공 구름 많음, 적란운.
약한소나기, 안개
일시적
20일 21시부터 21일 09시까지 (UTC)
시정: 3100m
고도 1100ft 상공 구름 많음
고도 2000ft 상공 구름 많음, 적란운.
박무
21일 0900시부터 (UTC)
14kt, 순간 최대 풍속 23kt
시정: 3100m
고도 700ft 상공 구름 많음
고도 2000ft 상공 구름 많음, 적란운.
박무

TAF: URFF 201650Z 2018/2118 20005G10MPS 3100 BR BKN011 BKN020CB FM202100 24003MPS 0400 -SHRA FG OVC001 BKN020CB TEMPO 2021/2109 3100 BR BKN011 BKN020CB FM210900 27007G12MPS 3100 BR BKN007 BKN020CB

4,000개 이상의 공항 관측 자료 및 예보 (METAR 및 TAF 보고).

지도상에서 검색 가능한 기상관측소가 노란 점과 빨간 점으로 표시되어 있습니다.

기상관측소 명을 보려면 표시 위로 마우스를 이동하세요.

날씨 관측과 예보를 보려면 클릭하세요.

지도 변경 : 확대하려면 엑스 표시가 있는 녹색 버튼, 축소하려면 빼기 표시가 있는 녹색 버튼, 다음 페이지의 지도를 보려면 녹색 화살표를 클릭하세요.


METAR-TAF: